createdAt,value
2019-02-19T00:00:18.856Z,14.70
2019-02-19T00:01:18.864Z,14.20
2019-02-19T00:02:18.885Z,14.90
2019-02-19T00:03:18.824Z,14.10
2019-02-19T00:04:18.832Z,13.20
2019-02-19T00:05:18.821Z,14.50
2019-02-19T00:06:18.825Z,16.60
2019-02-19T00:07:18.781Z,16.40
2019-02-19T00:08:18.777Z,14.50
2019-02-19T00:09:18.794Z,14.00
2019-02-19T00:10:18.745Z,14.20
2019-02-19T00:11:18.741Z,16.00
2019-02-19T00:12:18.750Z,16.40
2019-02-19T00:13:18.770Z,15.50
2019-02-19T00:14:18.693Z,15.40
2019-02-19T00:15:18.695Z,13.40
2019-02-19T00:16:18.757Z,15.40
2019-02-19T00:17:18.731Z,12.90
2019-02-19T00:18:18.659Z,14.00
2019-02-19T00:19:18.679Z,14.80
2019-02-19T00:20:18.633Z,14.60
2019-02-19T00:21:20.231Z,12.60
2019-02-19T00:22:18.648Z,16.50
2019-02-19T00:23:18.654Z,13.50
2019-02-19T00:24:18.599Z,17.70
2019-02-19T00:25:18.574Z,15.60
2019-02-19T00:26:18.634Z,13.40
2019-02-19T00:27:18.563Z,15.00
2019-02-19T00:28:18.560Z,19.30
2019-02-19T00:29:18.541Z,12.60
2019-02-19T00:30:18.598Z,13.10
2019-02-19T00:31:18.552Z,16.00
2019-02-19T00:32:18.541Z,17.30
2019-02-19T00:33:18.492Z,16.20
2019-02-19T00:34:18.498Z,15.10
2019-02-19T00:35:18.521Z,13.80
2019-02-19T00:36:18.507Z,12.50
2019-02-19T00:37:18.520Z,13.40
2019-02-19T00:38:18.435Z,14.60
2019-02-19T00:39:18.421Z,14.30
2019-02-19T00:40:18.417Z,13.60
2019-02-19T00:41:18.449Z,14.50
2019-02-19T00:42:18.408Z,15.90
2019-02-19T00:43:18.463Z,12.60
2019-02-19T00:44:18.370Z,12.70
2019-02-19T00:45:18.360Z,17.30
2019-02-19T00:46:18.344Z,13.00
2019-02-19T00:47:18.394Z,12.90
2019-02-19T00:48:18.355Z,13.60
2019-02-19T00:49:18.318Z,11.30
2019-02-19T00:50:18.309Z,13.50
2019-02-19T00:51:18.371Z,13.80
2019-02-19T00:52:18.316Z,12.60
2019-02-19T00:53:18.298Z,11.90
2019-02-19T00:54:18.260Z,16.70
2019-02-19T00:55:18.299Z,14.20
2019-02-19T00:56:18.232Z,14.10
2019-02-19T00:57:18.238Z,12.90
2019-02-19T00:58:18.304Z,12.50
2019-02-19T00:59:18.249Z,12.00
2019-02-19T01:00:18.273Z,13.30
2019-02-19T01:01:18.189Z,11.60
2019-02-19T01:02:18.171Z,11.50
2019-02-19T01:03:18.159Z,13.20
2019-02-19T01:04:18.156Z,13.20
2019-02-19T01:05:18.157Z,13.90
2019-02-19T01:06:18.138Z,15.70
2019-02-19T01:07:18.112Z,13.20
2019-02-19T01:08:18.191Z,13.30
2019-02-19T01:09:18.093Z,12.50
2019-02-19T01:10:18.098Z,14.30
2019-02-19T01:11:18.097Z,14.50
2019-02-19T01:12:18.074Z,15.90
2019-02-19T01:13:18.054Z,13.80
2019-02-19T01:14:18.072Z,12.70
2019-02-19T01:15:25.221Z,18.30
2019-02-19T01:16:19.123Z,13.70
2019-02-19T01:17:18.002Z,12.50
2019-02-19T01:18:17.991Z,13.30
2019-02-19T01:19:18.003Z,14.80
2019-02-19T01:20:17.977Z,14.10
2019-02-19T01:21:17.964Z,13.60
2019-02-19T01:22:17.991Z,14.80
2019-02-19T01:23:17.941Z,13.60
2019-02-19T01:24:17.931Z,15.20
2019-02-19T01:25:17.936Z,17.80
2019-02-19T01:26:17.983Z,13.60
2019-02-19T01:27:17.923Z,14.20
2019-02-19T01:28:17.888Z,13.60
2019-02-19T01:29:17.950Z,13.50
2019-02-19T01:30:17.883Z,16.10
2019-02-19T01:31:17.861Z,11.90
2019-02-19T01:32:17.846Z,15.20
2019-02-19T01:33:17.854Z,13.20
2019-02-19T01:34:17.849Z,12.60
2019-02-19T01:35:17.802Z,13.90
2019-02-19T01:36:17.800Z,13.00
2019-02-19T01:37:17.871Z,10.50
2019-02-19T01:38:17.792Z,12.60
2019-02-19T01:39:17.764Z,15.00
2019-02-19T01:40:17.763Z,14.00
2019-02-19T01:41:17.770Z,12.50
2019-02-19T01:42:18.786Z,14.40
2019-02-19T01:43:18.236Z,11.50
2019-02-19T01:44:17.717Z,11.80
2019-02-19T01:45:17.698Z,16.30
2019-02-19T01:46:17.690Z,11.60
2019-02-19T01:47:17.720Z,13.90
2019-02-19T01:48:17.737Z,14.90
2019-02-19T01:49:17.656Z,11.30
2019-02-19T01:50:17.667Z,12.20
2019-02-19T01:51:17.693Z,15.10
2019-02-19T01:52:17.649Z,11.10
2019-02-19T01:53:17.638Z,11.70
2019-02-19T01:54:17.627Z,12.40
2019-02-19T01:55:17.628Z,13.50
2019-02-19T01:56:17.576Z,11.40
2019-02-19T01:57:17.633Z,14.70
2019-02-19T01:58:17.621Z,12.70
2019-02-19T01:59:17.551Z,12.70
2019-02-19T02:00:17.548Z,14.40
2019-02-19T02:01:17.552Z,11.60
2019-02-19T02:02:18.251Z,12.40
2019-02-19T02:03:17.502Z,15.30
2019-02-19T02:04:18.204Z,12.40
2019-02-19T02:05:17.539Z,11.00
2019-02-19T02:06:17.475Z,13.40
2019-02-19T02:07:17.491Z,13.50
2019-02-19T02:08:17.456Z,14.80
2019-02-19T02:09:17.441Z,13.50
2019-02-19T02:10:17.463Z,13.80
2019-02-19T02:11:17.428Z,15.90
2019-02-19T02:12:17.477Z,14.00
2019-02-19T02:13:17.394Z,13.30
2019-02-19T02:14:17.396Z,11.40
2019-02-19T02:15:17.367Z,12.10
2019-02-19T02:16:17.374Z,12.60
2019-02-19T02:17:17.391Z,12.40
2019-02-19T02:18:17.348Z,12.00
2019-02-19T02:19:17.390Z,10.80
2019-02-19T02:20:17.327Z,13.20
2019-02-19T02:21:17.313Z,11.60
2019-02-19T02:22:17.290Z,10.70
2019-02-19T02:23:17.359Z,13.00
2019-02-19T02:24:17.265Z,14.20
2019-02-19T02:25:17.263Z,14.60
2019-02-19T02:26:17.248Z,14.10
2019-02-19T02:27:17.245Z,13.50
2019-02-19T02:28:17.261Z,12.50
2019-02-19T02:29:17.262Z,14.10
2019-02-19T02:30:17.318Z,12.60
2019-02-19T02:31:17.245Z,13.90
2019-02-19T02:32:17.185Z,12.20
2019-02-19T02:33:17.244Z,12.10
2019-02-19T02:34:17.182Z,13.20
2019-02-19T02:35:17.165Z,12.10
2019-02-19T02:36:17.153Z,14.00
2019-02-19T02:37:17.143Z,14.10
2019-02-19T02:38:17.123Z,14.40
2019-02-19T02:39:17.180Z,14.50
2019-02-19T02:40:17.130Z,10.90
2019-02-19T02:41:17.102Z,14.00
2019-02-19T02:42:17.093Z,12.80
2019-02-19T02:43:17.064Z,14.30
2019-02-19T02:44:17.100Z,11.00
2019-02-19T02:45:17.068Z,13.40
2019-02-19T02:46:17.035Z,12.60
2019-02-19T02:47:17.037Z,13.20
2019-02-19T02:48:17.022Z,12.70
2019-02-19T02:49:17.087Z,15.90
2019-02-19T02:50:17.032Z,14.30
2019-02-19T02:51:16.998Z,14.50
2019-02-19T02:52:16.993Z,13.80
2019-02-19T02:53:17.027Z,15.80
2019-02-19T02:54:16.956Z,19.00
2019-02-19T02:55:16.990Z,16.10
2019-02-19T02:56:16.944Z,17.80
2019-02-19T02:57:16.930Z,17.40
2019-02-19T02:58:17.694Z,21.50
2019-02-19T02:59:17.710Z,20.60
2019-02-19T03:00:16.904Z,21.80
2019-02-19T03:01:16.889Z,18.30
2019-02-19T03:02:16.869Z,19.20
2019-02-19T03:03:16.859Z,19.50
2019-02-19T03:04:16.887Z,18.90
2019-02-19T03:05:16.834Z,19.80
2019-02-19T03:06:16.833Z,23.50
2019-02-19T03:07:16.847Z,21.80
2019-02-19T03:08:16.802Z,22.50
2019-02-19T03:09:16.801Z,25.60
2019-02-19T03:10:16.803Z,20.70
2019-02-19T03:11:16.766Z,23.70
2019-02-19T03:12:16.755Z,23.50
2019-02-19T03:13:16.773Z,24.10
2019-02-19T03:14:16.741Z,23.00
2019-02-19T03:15:17.724Z,23.70
2019-02-19T03:16:16.747Z,24.50
2019-02-19T03:17:16.738Z,25.80
2019-02-19T03:18:16.692Z,25.90
2019-02-19T03:19:17.210Z,27.30
2019-02-19T03:20:16.680Z,25.70
2019-02-19T03:21:16.721Z,27.10
2019-02-19T03:22:16.676Z,26.80
2019-02-19T03:23:16.664Z,30.50
2019-02-19T03:24:16.625Z,28.50
2019-02-19T03:25:16.614Z,28.60
2019-02-19T03:26:16.644Z,29.30
2019-02-19T03:27:16.618Z,29.80
2019-02-19T03:28:16.576Z,33.70
2019-02-19T03:29:16.576Z,29.90
2019-02-19T03:30:16.550Z,26.80
2019-02-19T03:31:16.547Z,27.30
2019-02-19T03:32:16.588Z,28.80
2019-02-19T03:33:16.518Z,31.00
2019-02-19T03:34:16.524Z,28.20
2019-02-19T03:35:16.566Z,31.10
2019-02-19T03:36:18.267Z,33.10
2019-02-19T03:37:16.503Z,34.30
2019-02-19T03:38:17.210Z,35.80
2019-02-19T03:39:16.445Z,37.30
2019-02-19T03:40:16.496Z,34.70
2019-02-19T03:41:16.429Z,36.00
2019-02-19T03:42:16.468Z,36.90
2019-02-19T03:43:16.434Z,35.50
2019-02-19T03:44:16.465Z,34.50
2019-02-19T03:45:16.445Z,36.70
2019-02-19T03:46:16.473Z,35.90
2019-02-19T03:47:16.360Z,36.00
2019-02-19T03:48:16.353Z,36.50
2019-02-19T03:49:16.377Z,36.70
2019-02-19T03:50:16.376Z,33.80
2019-02-19T03:51:16.340Z,35.80
2019-02-19T03:52:16.313Z,38.70
2019-02-19T03:53:16.336Z,41.80
2019-02-19T03:54:16.307Z,38.70
2019-02-19T03:55:17.230Z,41.60
2019-02-19T03:56:16.335Z,42.60
2019-02-19T03:57:16.253Z,42.40
2019-02-19T03:58:16.312Z,44.40
2019-02-19T03:59:16.240Z,40.70
2019-02-19T04:00:16.239Z,47.00
2019-02-19T04:01:16.208Z,44.70
2019-02-19T04:02:16.254Z,45.10
2019-02-19T04:03:16.186Z,42.90
2019-02-19T04:04:16.180Z,45.10
2019-02-19T04:05:16.230Z,44.30
2019-02-19T04:06:16.196Z,43.80
2019-02-19T04:07:16.142Z,42.50
2019-02-19T04:08:16.142Z,42.80
2019-02-19T04:09:16.122Z,42.80
2019-02-19T04:10:16.141Z,39.80
2019-02-19T04:11:16.122Z,42.80
2019-02-19T04:12:16.699Z,41.10
2019-02-19T04:13:16.087Z,41.10
2019-02-19T04:14:16.078Z,39.50
2019-02-19T04:15:16.062Z,40.00
2019-02-19T04:16:21.284Z,44.70
2019-02-19T04:17:17.121Z,41.20
2019-02-19T04:18:16.023Z,47.50
2019-02-19T04:19:16.017Z,45.60
2019-02-19T04:20:16.034Z,38.90
2019-02-19T04:21:15.991Z,47.00
2019-02-19T04:22:15.986Z,43.00
2019-02-19T04:23:16.708Z,46.20
2019-02-19T04:24:15.988Z,40.50
2019-02-19T04:25:15.988Z,42.10
2019-02-19T04:26:15.944Z,42.30
2019-02-19T04:27:15.929Z,40.80
2019-02-19T04:28:15.947Z,41.20
2019-02-19T04:29:15.941Z,45.50
2019-02-19T04:30:15.896Z,40.30
2019-02-19T04:31:16.700Z,43.00
2019-02-19T04:32:15.910Z,45.20
2019-02-19T04:33:16.752Z,43.90
2019-02-19T04:34:15.877Z,43.20
2019-02-19T04:35:15.845Z,42.90
2019-02-19T04:36:15.894Z,43.60
2019-02-19T04:37:15.853Z,45.30
2019-02-19T04:38:15.858Z,44.00
2019-02-19T04:39:15.874Z,45.00
2019-02-19T04:40:15.858Z,45.40
2019-02-19T04:41:15.816Z,44.80
2019-02-19T04:42:15.769Z,41.80
2019-02-19T04:43:15.776Z,46.20
2019-02-19T04:44:15.830Z,46.60
2019-02-19T04:45:15.781Z,43.60
2019-02-19T04:46:15.799Z,45.90
2019-02-19T04:47:15.701Z,47.00
2019-02-19T04:48:15.758Z,43.60
2019-02-19T04:49:15.777Z,46.70
2019-02-19T04:50:15.722Z,45.10
2019-02-19T04:51:15.735Z,43.30
2019-02-19T04:52:15.665Z,46.00
2019-02-19T04:53:15.641Z,48.60
2019-02-19T04:54:15.638Z,44.80
2019-02-19T04:55:15.736Z,47.00
2019-02-19T04:56:15.659Z,50.60
2019-02-19T04:57:15.666Z,44.90
2019-02-19T04:58:15.588Z,43.10
2019-02-19T04:59:15.577Z,47.60
2019-02-19T05:00:15.671Z,47.50
2019-02-19T05:01:15.588Z,41.80
2019-02-19T05:02:15.618Z,41.80
2019-02-19T05:03:15.593Z,43.40
2019-02-19T05:04:15.529Z,40.10
2019-02-19T05:05:15.516Z,46.40
2019-02-19T05:06:15.511Z,47.00
2019-02-19T05:07:15.528Z,43.10
2019-02-19T05:08:15.530Z,45.40
2019-02-19T05:09:15.534Z,41.50
2019-02-19T05:10:15.464Z,39.90
2019-02-19T05:11:15.456Z,41.80
2019-02-19T05:12:15.443Z,40.40
2019-02-19T05:13:15.517Z,42.90
2019-02-19T05:14:15.466Z,40.00
2019-02-19T05:15:15.401Z,43.20
2019-02-19T05:16:15.388Z,43.40
2019-02-19T05:17:16.382Z,46.80
2019-02-19T05:18:15.375Z,42.50
2019-02-19T05:19:15.415Z,38.00
2019-02-19T05:20:15.404Z,39.30
2019-02-19T05:21:15.436Z,44.80
2019-02-19T05:22:15.329Z,44.20
2019-02-19T05:23:15.329Z,42.60
2019-02-19T05:24:15.315Z,44.90
2019-02-19T05:25:15.352Z,44.80
2019-02-19T05:26:15.321Z,45.30
2019-02-19T05:27:15.279Z,42.10
2019-02-19T05:28:15.340Z,44.20
2019-02-19T05:29:15.254Z,44.60
2019-02-19T05:30:15.244Z,41.10
2019-02-19T05:31:15.267Z,44.40
2019-02-19T05:32:15.262Z,47.70
2019-02-19T05:33:15.213Z,46.30
2019-02-19T05:34:15.256Z,46.60
2019-02-19T05:35:15.191Z,42.40
2019-02-19T05:36:15.180Z,48.70
2019-02-19T05:37:15.201Z,42.70
2019-02-19T05:38:15.203Z,47.60
2019-02-19T05:39:15.155Z,41.00
2019-02-19T05:40:15.140Z,42.20
2019-02-19T05:41:15.125Z,43.20
2019-02-19T05:42:15.138Z,39.70
2019-02-19T05:43:15.098Z,44.00
2019-02-19T05:44:15.091Z,45.80
2019-02-19T05:45:15.090Z,45.20
2019-02-19T05:46:15.090Z,42.50
2019-02-19T05:47:15.116Z,44.40
2019-02-19T05:48:15.060Z,42.90
2019-02-19T05:49:15.035Z,43.30
2019-02-19T05:50:15.075Z,42.10
2019-02-19T05:51:15.006Z,40.70
2019-02-19T05:52:15.091Z,40.70
2019-02-19T05:53:15.008Z,37.50
2019-02-19T05:54:14.986Z,42.00
2019-02-19T05:55:16.753Z,42.30
2019-02-19T05:56:14.972Z,38.70
2019-02-19T05:57:14.947Z,40.70
2019-02-19T05:58:15.029Z,37.90
2019-02-19T05:59:15.191Z,42.10
2019-02-19T06:00:15.692Z,38.80
2019-02-19T06:01:14.943Z,36.90
2019-02-19T06:02:14.908Z,39.20
2019-02-19T06:03:14.881Z,39.70
2019-02-19T06:04:15.679Z,41.90
2019-02-19T06:05:14.871Z,38.10
2019-02-19T06:06:14.885Z,38.10
2019-02-19T06:07:14.898Z,38.40
2019-02-19T06:08:14.824Z,36.80
2019-02-19T06:09:14.820Z,36.70
2019-02-19T06:10:14.810Z,37.10
2019-02-19T06:11:14.821Z,35.40
2019-02-19T06:12:14.793Z,36.50
2019-02-19T06:13:14.863Z,37.20
2019-02-19T06:14:14.787Z,40.30
2019-02-19T06:15:14.753Z,40.30
2019-02-19T06:16:14.761Z,34.70
2019-02-19T06:17:14.759Z,35.00
2019-02-19T06:18:14.974Z,38.50
2019-02-19T06:19:14.703Z,34.20
2019-02-19T06:20:14.719Z,36.80
2019-02-19T06:21:15.186Z,36.80
2019-02-19T06:22:14.683Z,38.00
2019-02-19T06:23:14.704Z,36.70
2019-02-19T06:24:14.714Z,39.60
2019-02-19T06:25:14.685Z,35.60
2019-02-19T06:26:15.640Z,36.60
2019-02-19T06:27:14.629Z,36.40
2019-02-19T06:28:14.656Z,38.40
2019-02-19T06:29:14.777Z,40.20
2019-02-19T06:30:14.601Z,38.30
2019-02-19T06:31:14.592Z,34.90
2019-02-19T06:32:15.598Z,36.10
2019-02-19T06:33:14.570Z,35.20
2019-02-19T06:34:14.575Z,38.30
2019-02-19T06:35:14.544Z,37.90
2019-02-19T06:36:14.716Z,37.10
2019-02-19T06:37:14.521Z,40.90
2019-02-19T06:38:14.503Z,39.50
2019-02-19T06:39:14.540Z,41.50
2019-02-19T06:40:14.476Z,40.10
2019-02-19T06:41:14.528Z,40.80
2019-02-19T06:42:14.506Z,41.20
2019-02-19T06:43:14.484Z,44.30
2019-02-19T06:44:14.542Z,41.80
2019-02-19T06:45:14.444Z,41.40
2019-02-19T06:46:14.462Z,43.80
2019-02-19T06:47:14.415Z,43.90
2019-02-19T06:48:14.428Z,47.10
2019-02-19T06:49:14.455Z,44.90
2019-02-19T06:50:14.386Z,42.80
2019-02-19T06:51:15.190Z,41.80
2019-02-19T06:52:14.394Z,46.30
2019-02-19T06:53:14.389Z,42.80
2019-02-19T06:54:14.395Z,45.60
2019-02-19T06:55:14.317Z,44.20
2019-02-19T06:56:14.319Z,50.40
2019-02-19T06:57:14.313Z,45.10
2019-02-19T06:58:14.295Z,49.90
2019-02-19T06:59:14.330Z,46.40
2019-02-19T07:00:14.407Z,47.10
2019-02-19T07:01:14.257Z,49.00
2019-02-19T07:02:14.270Z,48.40
2019-02-19T07:03:14.260Z,45.30
2019-02-19T07:04:14.234Z,43.60
2019-02-19T07:05:14.276Z,52.60
2019-02-19T07:06:14.197Z,46.10
2019-02-19T07:07:14.291Z,51.60
2019-02-19T07:08:14.216Z,51.00
2019-02-19T07:09:14.169Z,47.90
2019-02-19T07:10:14.213Z,45.90
2019-02-19T07:11:14.187Z,50.40
2019-02-19T07:12:14.158Z,47.80
2019-02-19T07:13:14.141Z,48.00
2019-02-19T07:14:14.127Z,47.70
2019-02-19T07:15:14.157Z,50.00
2019-02-19T07:16:14.112Z,47.50
2019-02-19T07:17:15.899Z,51.50
2019-02-19T07:18:14.070Z,53.50
2019-02-19T07:19:14.096Z,49.20
2019-02-19T07:20:14.105Z,50.60
2019-02-19T07:21:14.055Z,52.60
2019-02-19T07:22:14.028Z,50.10
2019-02-19T07:23:14.094Z,55.00
2019-02-19T07:24:14.063Z,49.40
2019-02-19T07:25:14.020Z,55.10
2019-02-19T07:26:13.989Z,50.20
2019-02-19T07:27:14.011Z,51.60
2019-02-19T07:28:13.985Z,51.00
2019-02-19T07:29:15.135Z,54.00
2019-02-19T07:30:13.970Z,55.60
2019-02-19T07:31:13.959Z,57.70
2019-02-19T07:32:13.926Z,53.30
2019-02-19T07:33:13.949Z,52.50
2019-02-19T07:34:13.902Z,54.30
2019-02-19T07:35:13.901Z,54.50
2019-02-19T07:36:13.954Z,54.70
2019-02-19T07:37:14.726Z,54.20
2019-02-19T07:38:13.872Z,53.50
2019-02-19T07:39:13.946Z,55.60
2019-02-19T07:41:26.248Z,61.60
2019-02-19T07:42:24.975Z,55.40
2019-02-19T07:43:25.091Z,57.60
2019-02-19T07:44:24.643Z,58.30
2019-02-19T07:45:24.565Z,57.10
2019-02-19T07:46:24.582Z,59.00
2019-02-19T07:47:24.942Z,59.10
2019-02-19T07:48:24.541Z,56.90
2019-02-19T07:49:24.483Z,60.30
2019-02-19T07:50:25.355Z,57.70
2019-02-19T07:51:24.557Z,56.30
2019-02-19T07:52:24.470Z,56.20
2019-02-19T07:53:24.459Z,59.80
2019-02-19T07:54:24.422Z,62.00
2019-02-19T07:55:24.850Z,59.10
2019-02-19T07:56:24.401Z,58.00
2019-02-19T07:57:24.481Z,58.40
2019-02-19T07:58:24.383Z,59.80
2019-02-19T08:00:36.498Z,52.30
2019-02-19T08:01:36.042Z,56.30
2019-02-19T08:02:35.519Z,59.30
2019-02-19T08:03:35.180Z,57.90
2019-02-19T08:04:35.139Z,57.40
2019-02-19T08:05:35.129Z,57.70
2019-02-19T08:06:35.068Z,56.50
2019-02-19T08:07:35.059Z,62.20
2019-02-19T08:08:35.084Z,56.90
2019-02-19T08:09:35.073Z,54.70
2019-02-19T08:10:35.030Z,58.10
2019-02-19T08:11:35.037Z,57.40
2019-02-19T08:12:35.064Z,57.40
2019-02-19T08:13:35.036Z,58.60
2019-02-19T08:14:35.010Z,60.10
2019-02-19T08:15:34.987Z,54.00
2019-02-19T08:16:35.074Z,54.30
2019-02-19T08:17:34.982Z,59.70
2019-02-19T08:18:35.173Z,60.90
2019-02-19T08:20:59.682Z,52.40
2019-02-19T08:22:00.493Z,55.40
2019-02-19T08:22:59.022Z,59.10
2019-02-19T08:23:59.053Z,53.90
2019-02-19T08:24:58.933Z,60.50
2019-02-19T08:25:58.984Z,56.30
2019-02-19T08:26:58.980Z,54.40
2019-02-19T08:27:58.915Z,56.20
2019-02-19T08:29:07.113Z,59.50
2019-02-19T08:29:59.948Z,56.50
2019-02-19T08:30:58.943Z,60.30
2019-02-19T08:31:58.914Z,52.20
2019-02-19T08:32:59.431Z,57.50
2019-02-19T08:33:59.455Z,59.80
2019-02-19T08:34:58.899Z,56.70
2019-02-19T08:35:58.882Z,57.70
2019-02-19T08:36:58.800Z,55.10
2019-02-19T08:37:58.870Z,57.30
2019-02-19T08:38:58.810Z,61.50
2019-02-19T08:39:59.766Z,57.40
2019-02-19T08:40:59.549Z,51.90
2019-02-19T08:41:58.778Z,52.60
2019-02-19T08:42:58.748Z,58.70
2019-02-19T08:43:58.786Z,54.90
2019-02-19T08:44:58.739Z,55.10
2019-02-19T08:48:42.078Z,50.20
2019-02-19T08:49:32.684Z,62.10
2019-02-19T08:50:32.597Z,55.80
2019-02-19T08:51:32.564Z,57.90
2019-02-19T08:52:32.566Z,53.70
2019-02-19T08:53:32.514Z,51.70
2019-02-19T08:54:32.532Z,49.40
2019-02-19T08:55:33.405Z,58.50
2019-02-19T08:56:32.487Z,52.00
2019-02-19T08:57:32.482Z,53.90
2019-02-19T08:58:32.501Z,51.80
2019-02-19T08:59:32.461Z,51.30
2019-02-19T09:00:32.457Z,51.20
2019-02-19T09:01:32.462Z,51.10
2019-02-19T09:02:32.453Z,52.90
2019-02-19T09:03:32.437Z,48.20
2019-02-19T09:04:32.426Z,49.80
2019-02-19T09:05:32.404Z,53.40
2019-02-19T09:06:32.428Z,47.80
2019-02-19T09:07:32.397Z,47.30
2019-02-19T09:08:34.332Z,54.30
2019-02-19T09:09:32.372Z,51.60
2019-02-19T09:10:32.388Z,51.30
2019-02-19T09:11:32.326Z,49.90
2019-02-19T09:12:32.326Z,48.90
2019-02-19T09:13:32.301Z,50.40
2019-02-19T09:14:32.308Z,48.30
2019-02-19T09:15:32.324Z,47.80
2019-02-19T09:16:32.286Z,47.30
2019-02-19T09:17:32.272Z,47.80
2019-02-19T09:18:32.377Z,48.80
2019-02-19T09:19:32.300Z,42.20
2019-02-19T09:20:32.280Z,53.70
2019-02-19T09:21:32.214Z,44.00
2019-02-19T09:22:32.402Z,43.00
2019-02-19T09:23:32.194Z,51.10
2019-02-19T09:24:32.214Z,43.50
2019-02-19T09:25:32.215Z,45.60
2019-02-19T09:26:32.220Z,44.90
2019-02-19T09:27:32.145Z,39.50
2019-02-19T09:28:32.229Z,43.70
2019-02-19T09:29:32.177Z,42.20
2019-02-19T09:30:32.107Z,40.70
2019-02-19T09:31:32.126Z,42.90
2019-02-19T09:32:32.112Z,50.30
2019-02-19T09:33:32.078Z,42.20
2019-02-19T09:34:32.066Z,44.70
2019-02-19T09:35:32.295Z,43.90
2019-02-19T09:36:32.058Z,45.00
2019-02-19T09:37:32.082Z,43.90
2019-02-19T09:38:32.085Z,44.20
2019-02-19T09:39:32.048Z,50.60
2019-02-19T09:40:33.529Z,41.80
2019-02-19T09:41:31.987Z,41.60
2019-02-19T09:42:31.986Z,43.00
2019-02-19T09:43:35.583Z,44.20
2019-02-19T09:44:31.955Z,50.30
2019-02-19T09:45:31.967Z,50.90
2019-02-19T09:46:32.004Z,49.00
2019-02-19T09:47:32.031Z,50.20
2019-02-19T09:48:32.084Z,46.60
2019-02-19T09:49:31.952Z,47.20
2019-02-19T09:50:31.887Z,47.30
2019-02-19T09:51:31.883Z,49.60
2019-02-19T09:52:31.873Z,48.70
2019-02-19T09:53:31.887Z,45.60
2019-02-19T09:54:31.908Z,49.00
2019-02-19T09:55:31.832Z,49.10
2019-02-19T09:56:31.857Z,52.10
2019-02-19T09:57:32.755Z,51.20
2019-02-19T09:58:31.845Z,51.50
2019-02-19T09:59:31.959Z,52.50
2019-02-19T10:00:31.786Z,53.00
2019-02-19T10:01:31.763Z,49.40
2019-02-19T10:02:31.794Z,45.60
2019-02-19T10:03:31.743Z,43.30
2019-02-19T10:04:31.793Z,42.00
2019-02-19T10:05:31.741Z,40.10
2019-02-19T10:06:31.714Z,39.20
2019-02-19T10:07:31.710Z,35.50
2019-02-19T10:08:31.728Z,35.20
2019-02-19T10:09:31.781Z,35.30
2019-02-19T10:10:31.691Z,32.60
2019-02-19T10:11:31.712Z,32.50
2019-02-19T10:12:31.651Z,31.80
2019-02-19T10:13:31.674Z,35.50
2019-02-19T10:14:31.642Z,33.60
2019-02-19T10:15:31.667Z,31.80
2019-02-19T10:16:31.626Z,38.40
2019-02-19T10:17:31.598Z,30.40
2019-02-19T10:18:31.583Z,34.70
2019-02-19T10:19:31.615Z,35.30
2019-02-19T10:20:31.583Z,34.60
2019-02-19T10:21:31.580Z,32.50
2019-02-19T10:22:31.554Z,32.90
2019-02-19T10:23:31.594Z,32.10
2019-02-19T10:24:31.519Z,30.40
2019-02-19T10:25:31.501Z,31.10
2019-02-19T10:26:31.538Z,29.50
2019-02-19T10:27:31.479Z,29.60
2019-02-19T10:28:31.468Z,32.40
2019-02-19T10:29:31.571Z,24.50
2019-02-19T10:30:31.576Z,29.70
2019-02-19T10:31:31.443Z,29.30
2019-02-19T10:32:31.498Z,27.40
2019-02-19T10:33:31.432Z,28.70
2019-02-19T10:34:31.406Z,31.60
2019-02-19T10:35:31.480Z,28.10
2019-02-19T10:36:31.400Z,30.80
2019-02-19T10:37:31.400Z,25.70
2019-02-19T10:38:31.408Z,29.20
2019-02-19T10:39:31.377Z,29.50
2019-02-19T10:40:31.340Z,29.90
2019-02-19T10:41:31.327Z,27.70
2019-02-19T10:42:31.351Z,29.70
2019-02-19T10:43:31.321Z,32.00
2019-02-19T10:44:31.312Z,27.80
2019-02-19T10:45:31.283Z,27.10
2019-02-19T10:46:31.368Z,33.80
2019-02-19T10:47:31.307Z,26.20
2019-02-19T10:48:31.446Z,28.90
2019-02-19T10:49:31.260Z,28.90
2019-02-19T10:50:31.232Z,24.40
2019-02-19T10:51:31.245Z,25.00
2019-02-19T10:52:31.264Z,26.80
2019-02-19T10:53:31.194Z,27.10
2019-02-19T10:54:31.223Z,25.10
2019-02-19T10:55:31.182Z,25.10
2019-02-19T10:56:31.176Z,22.30
2019-02-19T10:57:31.221Z,24.50
2019-02-19T10:58:31.207Z,22.90
2019-02-19T10:59:31.225Z,24.90
2019-02-19T11:00:31.193Z,26.60
2019-02-19T11:01:31.127Z,24.80
2019-02-19T11:02:31.194Z,25.60
2019-02-19T11:03:31.178Z,23.50
2019-02-19T11:04:31.161Z,25.10
2019-02-19T11:05:31.169Z,26.10
2019-02-19T11:06:31.181Z,23.90
2019-02-19T11:07:31.080Z,25.20
2019-02-19T11:08:32.015Z,25.00
2019-02-19T11:09:31.046Z,22.70
2019-02-19T11:10:31.063Z,23.80
2019-02-19T11:11:31.118Z,29.00
2019-02-19T11:12:31.036Z,24.20
2019-02-19T11:13:31.022Z,23.90
2019-02-19T11:14:31.049Z,23.00
2019-02-19T11:15:31.001Z,23.20
2019-02-19T11:16:30.945Z,22.00
2019-02-19T11:17:30.971Z,20.10
2019-02-19T11:18:30.972Z,23.60
2019-02-19T11:19:30.925Z,20.90
2019-02-19T11:20:30.911Z,21.20
2019-02-19T11:21:30.970Z,22.30
2019-02-19T11:22:30.929Z,21.20
2019-02-19T11:23:30.930Z,22.30
2019-02-19T11:24:31.119Z,23.00
2019-02-19T11:25:30.863Z,20.40
2019-02-19T11:26:30.847Z,20.00
2019-02-19T11:27:30.833Z,23.60
2019-02-19T11:28:30.884Z,18.90
2019-02-19T11:29:30.859Z,24.00
2019-02-19T11:30:30.800Z,23.20
2019-02-19T11:31:30.781Z,19.20
2019-02-19T11:32:30.779Z,22.00
2019-02-19T11:33:30.834Z,23.60
2019-02-19T11:34:30.752Z,24.40
2019-02-19T11:35:30.756Z,21.90
2019-02-19T11:36:30.736Z,21.40
2019-02-19T11:37:30.874Z,16.90
2019-02-19T11:38:30.746Z,22.90
2019-02-19T11:39:30.950Z,18.90
2019-02-19T11:40:30.701Z,20.40
2019-02-19T11:41:32.587Z,20.10
2019-02-19T11:42:30.706Z,18.80
2019-02-19T11:43:30.726Z,14.70
2019-02-19T11:44:30.659Z,19.50
2019-02-19T11:45:30.632Z,19.10
2019-02-19T11:46:30.620Z,15.70
2019-02-19T11:47:30.639Z,16.40
2019-02-19T11:48:36.764Z,17.70
2019-02-19T11:49:31.603Z,16.00
2019-02-19T11:50:30.586Z,20.10
2019-02-19T11:51:30.608Z,20.50
2019-02-19T11:52:30.571Z,20.30
2019-02-19T11:53:30.579Z,20.70
2019-02-19T11:54:30.528Z,17.30
2019-02-19T11:55:30.550Z,20.10
2019-02-19T11:56:30.590Z,18.60
2019-02-19T11:57:30.496Z,19.60
2019-02-19T11:58:30.561Z,18.10
2019-02-19T11:59:30.550Z,18.30
2019-02-19T12:00:30.563Z,21.40
2019-02-19T12:01:30.448Z,23.40
2019-02-19T12:02:32.995Z,22.60
2019-02-19T12:03:30.435Z,19.50
2019-02-19T12:04:30.574Z,20.00
2019-02-19T12:05:30.546Z,21.90
2019-02-19T12:06:30.398Z,23.80
2019-02-19T12:07:30.417Z,19.10
2019-02-19T12:08:38.663Z,22.40
2019-02-19T12:09:31.367Z,23.50
2019-02-19T12:10:30.395Z,20.50
2019-02-19T12:11:30.400Z,19.50
2019-02-19T12:12:30.388Z,22.90
2019-02-19T12:13:30.317Z,21.10
2019-02-19T12:14:30.341Z,20.40
2019-02-19T12:15:35.224Z,20.30
2019-02-19T12:16:31.355Z,18.80
2019-02-19T12:17:30.269Z,20.00
2019-02-19T12:18:30.272Z,21.00
2019-02-19T12:19:30.268Z,22.60
2019-02-19T12:20:30.257Z,22.60
2019-02-19T12:21:30.296Z,19.00
2019-02-19T12:22:30.220Z,17.70
2019-02-19T12:23:30.390Z,19.70
2019-02-19T12:24:30.226Z,17.40
2019-02-19T12:25:30.215Z,18.90
2019-02-19T12:26:30.207Z,20.50
2019-02-19T12:27:30.213Z,21.00
2019-02-19T12:28:30.365Z,18.40
2019-02-19T12:29:33.078Z,19.60
2019-02-19T12:30:30.136Z,18.80
2019-02-19T12:31:30.131Z,19.50
2019-02-19T12:32:30.273Z,17.90
2019-02-19T12:33:30.161Z,20.20
2019-02-19T12:34:30.111Z,22.60
2019-02-19T12:35:30.110Z,21.60
2019-02-19T12:36:30.160Z,20.50
2019-02-19T12:37:30.119Z,20.80
2019-02-19T12:38:30.108Z,19.20
2019-02-19T12:39:30.033Z,19.90
2019-02-19T12:40:30.089Z,20.50
2019-02-19T12:41:30.054Z,20.00
2019-02-19T12:42:30.111Z,20.90
2019-02-19T12:43:29.999Z,18.70
2019-02-19T12:44:30.011Z,21.50
2019-02-19T12:45:29.966Z,18.10
2019-02-19T12:46:31.575Z,17.00
2019-02-19T12:47:30.016Z,17.20
2019-02-19T12:48:29.941Z,15.90
2019-02-19T12:49:29.962Z,25.20
2019-02-19T12:55:29.848Z,18.50
2019-02-19T12:56:29.231Z,18.60
2019-02-19T12:57:29.276Z,17.10
2019-02-19T12:58:28.910Z,17.10
2019-02-19T12:59:28.878Z,18.10
2019-02-19T13:00:28.918Z,18.30
2019-02-19T13:01:28.844Z,20.10
2019-02-19T13:02:28.832Z,22.40
2019-02-19T13:03:29.771Z,18.10